Airfield :
LOGIN :

Register | Disclaimer

   EN    FR    IT 

 










Legend :    VFR   Marginal VFR   IFR   Intensive IFR   Very Intensive IFR
Visi :
Ceiling :
>= 8 km
>= 3000ft
5 to 8 km
1000 to 3000 ft
1500m to 5 km
500 to 1000 ft
800 to 1500m
200 to 500 ft
< 800m
< 200 ft
Symbols :   Thunderstorms  Fog  Heavy snow  Heavy precipitations  Wind > 20 kt
SIGMETs :     Misc.  Thunderstorms  Icing  Turbulence  Mountain Waves  Volcanic Ashes






- Airport Elevation : 468 ft
- IATA code : BQT


UMBB - Brest

CURRENT METAR :
  • 291300Z 25002MPS 5000 BR BKN025CB 13/08 Q1012 R29/CLRD// NOSIG

EXPIRED METARs :
  • 291200Z 27004MPS 5000 BR BKN020CB 14/09 Q1013 R29/CLRD// NOSIG
  • 291100Z 25004MPS 4700 BR OVC014CB 13/09 Q1013 R29/CLRD// NOSIG

TAF TAF UMBB
Valid from the 29 at 12:00 until the 29 at 21:00 UTC


291105Z 2912/2921 24003MPS 5000 BR BKN010
TEMPO 2912/2920 26003G08MPS 2100 -SHRA BR BKN007 SCT016CB



MET'MAP, your aeronautical weather chart ! - Copyright ORBIFLY December 2007 - Disclaimer

ORBIFLY MET'MAP TEAM :

Programming & Development : Alexandra Zaïnal
Concept & original design : Baudouin d'Aumeries
Assistance for programming : Marc-Olivier Méhu
Technical & hardware support : Manuel Goepfert

Contact : metmap@orbifly.com




SOURCES & CREDITS :

   NOAA